createdAt,value
2022-08-11T00:01:53.232Z,20.01
2022-08-11T00:04:23.726Z,19.94
2022-08-11T00:06:52.062Z,19.94
2022-08-11T00:09:21.436Z,20.00
2022-08-11T00:11:58.823Z,19.90
2022-08-11T00:14:36.815Z,19.79
2022-08-11T00:17:10.757Z,19.71
2022-08-11T00:20:12.026Z,19.70
2022-08-11T00:22:28.346Z,19.71
2022-08-11T00:25:00.020Z,19.72
2022-08-11T00:27:36.546Z,19.65
2022-08-11T00:30:05.597Z,19.68
2022-08-11T00:32:32.580Z,19.67
2022-08-11T00:35:55.701Z,19.57
2022-08-11T00:37:50.374Z,19.52
2022-08-11T00:40:34.553Z,19.49
2022-08-11T00:43:21.348Z,19.41
2022-08-11T00:46:14.833Z,19.30
2022-08-11T00:48:50.291Z,19.19
2022-08-11T00:52:02.102Z,19.22
2022-08-11T00:54:59.965Z,19.07
2022-08-11T00:57:45.151Z,19.09
2022-08-11T01:00:22.654Z,19.03
2022-08-11T01:03:18.610Z,19.00
2022-08-11T01:06:17.357Z,18.96
2022-08-11T01:09:23.003Z,18.84
2022-08-11T01:12:14.373Z,18.72
2022-08-11T01:15:20.508Z,18.63
2022-08-11T01:18:08.707Z,18.45
2022-08-11T01:21:05.931Z,18.45
2022-08-11T01:23:59.944Z,18.43
2022-08-11T01:26:58.103Z,18.43
2022-08-11T01:29:55.515Z,18.39
2022-08-11T01:32:59.208Z,18.30
2022-08-11T01:35:44.561Z,18.25
2022-08-11T01:38:45.483Z,18.32
2022-08-11T01:41:50.964Z,18.25
2022-08-11T01:44:42.367Z,18.25
2022-08-11T01:47:54.318Z,18.13
2022-08-11T01:50:37.144Z,18.08
2022-08-11T01:53:12.691Z,18.00
2022-08-11T01:56:04.799Z,17.97
2022-08-11T01:58:50.100Z,17.90
2022-08-11T02:01:41.196Z,17.84
2022-08-11T02:04:25.786Z,17.81
2022-08-11T02:07:10.265Z,17.76
2022-08-11T02:10:00.717Z,17.72
2022-08-11T02:12:51.182Z,17.69
2022-08-11T02:15:28.364Z,17.52
2022-08-11T02:18:18.400Z,17.55
2022-08-11T02:21:27.170Z,17.49
2022-08-11T02:24:08.079Z,17.47
2022-08-11T02:26:50.128Z,17.34
2022-08-11T02:29:32.441Z,17.35
2022-08-11T02:32:30.648Z,17.30
2022-08-11T02:35:28.067Z,17.29
2022-08-11T02:38:11.542Z,17.26
2022-08-11T02:41:31.163Z,17.16
2022-08-11T02:44:16.365Z,17.12
2022-08-11T02:47:06.959Z,17.16
2022-08-11T02:50:06.278Z,17.01
2022-08-11T02:52:59.093Z,16.96
2022-08-11T02:55:58.360Z,16.95
2022-08-11T02:58:42.115Z,16.91
2022-08-11T03:01:28.360Z,16.85
2022-08-11T03:04:05.609Z,16.81
2022-08-11T03:06:58.372Z,16.76
2022-08-11T03:09:54.219Z,16.72
2022-08-11T03:12:53.142Z,16.74
2022-08-11T03:15:46.082Z,16.67
2022-08-11T03:18:27.441Z,16.57
2022-08-11T03:21:06.171Z,16.45
2022-08-11T03:23:58.439Z,16.37
2022-08-11T03:27:03.493Z,16.33
2022-08-11T03:29:37.622Z,16.28
2022-08-11T03:32:29.863Z,16.27
2022-08-11T03:35:01.375Z,16.22
2022-08-11T03:37:51.674Z,16.13
2022-08-11T03:40:59.406Z,16.06
2022-08-11T03:43:58.337Z,15.97
2022-08-11T03:46:46.794Z,15.98
2022-08-11T03:50:02.371Z,15.94
2022-08-11T03:52:53.575Z,15.96
2022-08-11T03:55:27.259Z,15.85
2022-08-11T03:58:15.848Z,15.87
2022-08-11T04:01:20.173Z,15.88
2022-08-11T04:04:15.118Z,15.83
2022-08-11T04:07:17.672Z,15.81
2022-08-11T04:10:12.510Z,15.77
2022-08-11T04:13:13.004Z,15.70
2022-08-11T04:16:11.928Z,15.71
2022-08-11T04:19:16.711Z,15.75
2022-08-11T04:21:57.305Z,15.74
2022-08-11T04:24:49.739Z,15.74
2022-08-11T04:27:54.214Z,15.74
2022-08-11T04:30:57.928Z,15.75
2022-08-11T04:33:59.713Z,15.80
2022-08-11T04:37:17.405Z,15.83
2022-08-11T04:40:12.203Z,15.87
2022-08-11T04:43:21.315Z,15.93
2022-08-11T04:45:53.364Z,15.94
2022-08-11T04:49:07.482Z,16.03
2022-08-11T04:52:37.941Z,16.05
2022-08-11T04:55:44.741Z,16.12
2022-08-11T04:58:51.770Z,16.07
2022-08-11T05:01:55.458Z,16.22
2022-08-11T05:05:10.686Z,16.36
2022-08-11T05:07:55.304Z,16.42
2022-08-11T05:10:48.315Z,16.55
2022-08-11T05:13:49.112Z,16.74
2022-08-11T05:16:40.405Z,16.82
2022-08-11T05:19:25.598Z,16.92
2022-08-11T05:22:14.913Z,17.08
2022-08-11T05:25:04.630Z,17.34
2022-08-11T05:27:59.179Z,17.56
2022-08-11T05:30:47.315Z,17.80
2022-08-11T05:33:41.869Z,18.00
2022-08-11T05:36:27.927Z,18.19
2022-08-11T05:39:36.444Z,18.42
2022-08-11T05:42:30.328Z,18.65
2022-08-11T05:46:02.461Z,19.09
2022-08-11T05:48:37.362Z,19.72
2022-08-11T05:51:30.597Z,20.27
2022-08-11T05:54:28.120Z,20.76
2022-08-11T05:56:59.554Z,21.14
2022-08-11T05:59:28.419Z,21.45
2022-08-11T06:02:01.302Z,21.72
2022-08-11T06:04:29.119Z,21.96
2022-08-11T06:07:01.544Z,22.30
2022-08-11T06:09:33.803Z,22.56
2022-08-11T06:12:04.509Z,22.87
2022-08-11T06:14:32.736Z,23.03
2022-08-11T06:17:02.798Z,23.24
2022-08-11T06:19:42.613Z,23.53
2022-08-11T06:22:11.936Z,23.74
2022-08-11T06:24:41.733Z,23.94
2022-08-11T06:27:12.685Z,24.04
2022-08-11T06:29:54.441Z,24.32
2022-08-11T06:32:44.695Z,24.46
2022-08-11T06:35:26.652Z,24.56
2022-08-11T06:37:59.229Z,24.82
2022-08-11T06:41:06.565Z,25.12
2022-08-11T06:43:55.914Z,25.42
2022-08-11T06:46:37.188Z,25.44
2022-08-11T06:49:04.165Z,25.68
2022-08-11T06:51:32.479Z,25.85
2022-08-11T06:54:04.514Z,25.99
2022-08-11T06:57:29.858Z,25.98
2022-08-11T07:00:04.381Z,26.16
2022-08-11T07:02:34.426Z,26.25
2022-08-11T07:05:14.995Z,26.40
2022-08-11T07:08:49.909Z,26.60
2022-08-11T07:11:57.561Z,26.89
2022-08-11T07:14:45.501Z,27.03
2022-08-11T07:17:17.647Z,27.09
2022-08-11T07:20:10.034Z,27.20
2022-08-11T07:22:55.635Z,27.27
2022-08-11T07:25:43.366Z,27.55
2022-08-11T07:28:36.324Z,27.65
2022-08-11T07:31:14.193Z,27.84
2022-08-11T07:34:07.377Z,27.84
2022-08-11T07:36:42.758Z,27.82
2022-08-11T07:39:17.614Z,28.19
2022-08-11T07:41:45.654Z,28.13
2022-08-11T07:44:13.678Z,28.33
2022-08-11T07:47:01.413Z,28.52
2022-08-11T07:49:49.560Z,28.49
2022-08-11T07:52:35.270Z,28.60
2022-08-11T07:55:05.366Z,28.80
2022-08-11T07:58:16.163Z,28.85
2022-08-11T08:01:01.696Z,29.08
2022-08-11T08:03:54.368Z,29.20
2022-08-11T08:06:41.569Z,29.05
2022-08-11T08:09:27.828Z,29.30
2022-08-11T08:12:14.073Z,29.70
2022-08-11T08:15:01.264Z,29.74
2022-08-11T08:18:09.106Z,29.84
2022-08-11T08:20:46.044Z,29.96
2022-08-11T08:23:13.278Z,30.30
2022-08-11T08:25:43.141Z,29.98
2022-08-11T08:28:14.698Z,30.09
2022-08-11T08:30:50.627Z,30.30
2022-08-11T08:33:20.743Z,30.48
2022-08-11T08:35:54.466Z,30.40
2022-08-11T08:38:23.195Z,30.56
2022-08-11T08:40:55.784Z,30.53
2022-08-11T08:43:24.010Z,30.52
2022-08-11T08:45:55.699Z,30.47
2022-08-11T08:48:25.785Z,30.69
2022-08-11T08:51:19.256Z,31.02
2022-08-11T08:53:53.281Z,30.60
2022-08-11T08:56:28.217Z,30.79
2022-08-11T08:58:57.931Z,31.06
2022-08-11T09:01:29.317Z,31.23
2022-08-11T09:04:07.076Z,31.43
2022-08-11T09:06:40.078Z,31.50
2022-08-11T09:09:12.323Z,31.65
2022-08-11T09:11:53.563Z,31.73
2022-08-11T09:14:23.291Z,31.69
2022-08-11T09:16:51.336Z,31.90
2022-08-11T09:19:20.263Z,32.04
2022-08-11T09:22:11.546Z,31.88
2022-08-11T09:24:58.418Z,31.78
2022-08-11T09:27:26.471Z,31.75
2022-08-11T09:29:54.019Z,31.95
2022-08-11T09:32:23.979Z,32.18
2022-08-11T09:34:52.182Z,32.13
2022-08-11T09:37:55.582Z,32.18
2022-08-11T09:40:30.742Z,32.24
2022-08-11T09:43:18.108Z,32.32
2022-08-11T09:45:51.323Z,32.31
2022-08-11T09:48:19.582Z,32.44
2022-08-11T09:50:49.862Z,32.00
2022-08-11T09:53:36.756Z,32.24
2022-08-11T09:56:25.261Z,32.11
2022-08-11T09:58:52.196Z,32.20
2022-08-11T10:01:29.689Z,31.57
2022-08-11T10:04:00.982Z,31.80
2022-08-11T10:06:48.538Z,31.28
2022-08-11T10:09:21.895Z,31.49
2022-08-11T10:11:58.192Z,31.26
2022-08-11T10:14:45.173Z,31.42
2022-08-11T10:17:14.610Z,31.28
2022-08-11T10:19:43.415Z,31.59
2022-08-11T10:22:28.559Z,31.76
2022-08-11T10:25:19.846Z,31.62
2022-08-11T10:28:17.656Z,31.50
2022-08-11T10:31:06.820Z,31.72
2022-08-11T10:33:59.655Z,31.94
2022-08-11T10:36:44.256Z,31.35
2022-08-11T10:39:17.198Z,31.31
2022-08-11T10:42:25.776Z,31.26
2022-08-11T10:45:25.261Z,31.32
2022-08-11T10:47:55.063Z,31.02
2022-08-11T10:50:40.895Z,30.94
2022-08-11T10:53:26.332Z,30.84
2022-08-11T10:56:11.938Z,31.24
2022-08-11T10:58:51.282Z,31.70
2022-08-11T11:01:31.869Z,31.41
2022-08-11T11:04:01.830Z,31.04
2022-08-11T11:06:44.720Z,31.13
2022-08-11T11:09:32.418Z,31.62
2022-08-11T11:12:25.742Z,32.01
2022-08-11T11:15:17.504Z,31.34
2022-08-11T11:18:07.510Z,30.96
2022-08-11T11:20:45.028Z,31.06
2022-08-11T11:23:20.013Z,31.63
2022-08-11T11:26:10.613Z,31.69
2022-08-11T11:28:54.645Z,32.14
2022-08-11T11:31:45.869Z,31.70
2022-08-11T11:34:52.821Z,32.15
2022-08-11T11:37:20.889Z,31.92
2022-08-11T11:39:47.969Z,31.87
2022-08-11T11:42:16.514Z,31.91
2022-08-11T11:44:44.922Z,31.53
2022-08-11T11:47:12.666Z,31.99
2022-08-11T11:49:43.772Z,32.15
2022-08-11T11:52:17.163Z,32.47
2022-08-11T11:54:43.923Z,32.42
2022-08-11T11:57:33.331Z,32.00
2022-08-11T12:00:18.567Z,31.55
2022-08-11T12:02:45.321Z,32.12
2022-08-11T12:05:14.801Z,32.31
2022-08-11T12:08:12.445Z,32.53
2022-08-11T12:10:43.380Z,32.05
2022-08-11T12:13:28.701Z,32.06
2022-08-11T12:16:31.638Z,32.01
2022-08-11T12:18:43.650Z,32.01
2022-08-11T12:21:10.595Z,31.79
2022-08-11T12:24:02.277Z,31.58
2022-08-11T12:27:02.782Z,31.87
2022-08-11T12:29:36.506Z,32.44
2022-08-11T12:32:08.679Z,32.16
2022-08-11T12:34:35.486Z,32.57
2022-08-11T12:37:05.666Z,32.74
2022-08-11T12:40:16.867Z,32.82
2022-08-11T12:43:03.897Z,32.70
2022-08-11T12:45:31.573Z,32.02
2022-08-11T12:48:59.298Z,32.28
2022-08-11T12:51:30.025Z,32.07
2022-08-11T12:54:12.823Z,32.53
2022-08-11T12:57:02.219Z,32.46
2022-08-11T12:59:48.255Z,32.90
2022-08-11T13:02:43.919Z,32.33
2022-08-11T13:05:13.659Z,32.10
2022-08-11T13:07:50.833Z,32.48
2022-08-11T13:10:39.460Z,32.85
2022-08-11T13:13:55.406Z,33.27
2022-08-11T13:15:55.811Z,33.44
2022-08-11T13:18:24.923Z,33.39
2022-08-11T13:20:55.868Z,33.04
2022-08-11T13:23:24.586Z,32.92
2022-08-11T13:25:54.072Z,32.83
2022-08-11T13:28:22.416Z,32.90
2022-08-11T13:31:10.779Z,33.23
2022-08-11T13:33:49.843Z,33.19
2022-08-11T13:36:20.539Z,33.08
2022-08-11T13:38:50.173Z,32.66
2022-08-11T13:41:37.043Z,32.74
2022-08-11T13:44:05.380Z,32.39
2022-08-11T13:46:32.551Z,32.80
2022-08-11T13:49:01.002Z,32.94
2022-08-11T13:51:34.337Z,33.51
2022-08-11T13:54:10.980Z,33.63
2022-08-11T13:56:44.097Z,32.88
2022-08-11T13:59:10.729Z,32.73
2022-08-11T14:02:19.352Z,33.32
2022-08-11T14:04:40.273Z,32.91
2022-08-11T14:07:09.072Z,32.54
2022-08-11T14:09:39.480Z,32.79
2022-08-11T14:12:31.084Z,32.70
2022-08-11T14:15:08.568Z,32.48
2022-08-11T14:17:48.234Z,32.44
2022-08-11T14:20:38.213Z,32.28
2022-08-11T14:23:04.296Z,32.97
2022-08-11T14:25:59.464Z,33.33
2022-08-11T14:28:30.905Z,33.36
2022-08-11T14:31:02.721Z,33.32
2022-08-11T14:34:00.947Z,32.33
2022-08-11T14:36:20.526Z,32.25
2022-08-11T14:38:48.418Z,32.30
2022-08-11T14:41:34.529Z,32.29
2022-08-11T14:44:20.218Z,32.42
2022-08-11T14:47:05.836Z,32.24
2022-08-11T14:50:05.056Z,32.79
2022-08-11T14:52:43.228Z,32.99
2022-08-11T14:55:29.453Z,32.63
2022-08-11T14:57:57.023Z,32.19
2022-08-11T15:00:24.801Z,32.08
2022-08-11T15:03:10.685Z,32.30
2022-08-11T15:05:59.969Z,32.25
2022-08-11T15:08:53.567Z,31.99
2022-08-11T15:11:41.992Z,32.08
2022-08-11T15:14:11.202Z,32.09
2022-08-11T15:17:00.528Z,32.17
2022-08-11T15:19:37.494Z,31.88
2022-08-11T15:22:28.161Z,32.07
2022-08-11T15:24:55.697Z,32.15
2022-08-11T15:27:42.647Z,32.09
2022-08-11T15:30:33.665Z,32.01
2022-08-11T15:33:27.902Z,31.81
2022-08-11T15:36:15.296Z,31.78
2022-08-11T15:38:55.325Z,31.95
2022-08-11T15:41:42.317Z,31.62
2022-08-11T15:44:58.860Z,31.50
2022-08-11T15:47:22.939Z,32.03
2022-08-11T15:50:11.003Z,31.67
2022-08-11T15:52:48.134Z,31.61
2022-08-11T15:55:16.450Z,31.76
2022-08-11T15:58:03.136Z,31.80
2022-08-11T16:00:48.456Z,31.32
2022-08-11T16:04:05.854Z,31.23
2022-08-11T16:06:27.225Z,31.21
2022-08-11T16:08:58.120Z,31.05
2022-08-11T16:11:26.570Z,31.00
2022-08-11T16:14:12.814Z,30.82
2022-08-11T16:16:40.455Z,30.58
2022-08-11T16:19:10.450Z,30.50
2022-08-11T16:21:40.088Z,30.60
2022-08-11T16:24:08.281Z,30.50
2022-08-11T16:27:10.520Z,30.85
2022-08-11T16:29:26.616Z,30.59
2022-08-11T16:32:14.415Z,30.55
2022-08-11T16:35:02.421Z,30.49
2022-08-11T16:37:49.603Z,30.27
2022-08-11T16:40:17.271Z,30.35
2022-08-11T16:43:10.717Z,30.40
2022-08-11T16:45:59.230Z,30.33
2022-08-11T16:48:33.086Z,30.18
2022-08-11T16:51:05.925Z,30.21
2022-08-11T16:53:54.944Z,30.06
2022-08-11T16:56:23.208Z,30.10
2022-08-11T16:59:15.171Z,30.17
2022-08-11T17:01:45.160Z,30.25
2022-08-11T17:04:54.640Z,30.26
2022-08-11T17:07:43.180Z,30.07
2022-08-11T17:10:50.421Z,30.03
2022-08-11T17:13:23.681Z,29.91
2022-08-11T17:16:07.107Z,30.03
2022-08-11T17:18:40.181Z,30.04
2022-08-11T17:21:12.683Z,29.98
2022-08-11T17:23:52.551Z,29.77
2022-08-11T17:26:23.008Z,29.77
2022-08-11T17:28:52.625Z,29.70
2022-08-11T17:31:40.155Z,29.73
2022-08-11T17:34:26.999Z,29.63
2022-08-11T17:36:55.112Z,29.62
2022-08-11T17:39:25.239Z,29.56
2022-08-11T17:42:11.474Z,29.46
2022-08-11T17:44:58.421Z,29.57
2022-08-11T17:47:44.447Z,29.38
2022-08-11T17:50:17.848Z,29.29
2022-08-11T17:53:05.449Z,29.23
2022-08-11T17:55:53.569Z,29.21
2022-08-11T17:58:40.334Z,29.20
2022-08-11T18:01:10.873Z,29.19
2022-08-11T18:03:41.458Z,28.86
2022-08-11T18:06:12.903Z,28.94
2022-08-11T18:09:03.195Z,29.00
2022-08-11T18:12:07.426Z,28.82
2022-08-11T18:14:58.977Z,28.82
2022-08-11T18:17:43.816Z,28.79
2022-08-11T18:20:29.152Z,28.76
2022-08-11T18:23:16.367Z,28.66
2022-08-11T18:26:06.459Z,28.55
2022-08-11T18:29:01.579Z,28.52
2022-08-11T18:31:51.971Z,28.40
2022-08-11T18:34:42.875Z,28.33
2022-08-11T18:37:46.070Z,28.22
2022-08-11T18:40:38.159Z,28.07
2022-08-11T18:43:27.895Z,27.90
2022-08-11T18:46:23.342Z,27.74
2022-08-11T18:49:16.493Z,27.60
2022-08-11T18:52:06.360Z,27.44
2022-08-11T18:54:55.124Z,27.25
2022-08-11T18:57:49.473Z,27.12
2022-08-11T19:00:40.687Z,26.96
2022-08-11T19:03:26.892Z,26.85
2022-08-11T19:06:40.032Z,26.73
2022-08-11T19:09:21.371Z,26.64
2022-08-11T19:12:08.045Z,26.51
2022-08-11T19:14:55.285Z,26.36
2022-08-11T19:17:45.950Z,26.23
2022-08-11T19:20:39.467Z,26.00
2022-08-11T19:23:27.097Z,25.93
2022-08-11T19:26:12.755Z,25.79
2022-08-11T19:29:01.267Z,25.67
2022-08-11T19:31:47.980Z,25.57
2022-08-11T19:34:37.119Z,25.42
2022-08-11T19:37:25.311Z,25.35
2022-08-11T19:40:24.919Z,25.26
2022-08-11T19:43:11.287Z,25.19
2022-08-11T19:46:11.274Z,25.14
2022-08-11T19:48:57.206Z,25.10
2022-08-11T19:51:43.068Z,25.02
2022-08-11T19:54:29.247Z,24.91
2022-08-11T19:57:16.095Z,24.79
2022-08-11T20:00:02.090Z,24.64
2022-08-11T20:02:49.476Z,24.49
2022-08-11T20:05:34.842Z,24.40
2022-08-11T20:08:20.732Z,24.32
2022-08-11T20:11:06.877Z,24.13
2022-08-11T20:13:53.515Z,24.02
2022-08-11T20:16:41.483Z,23.96
2022-08-11T20:19:55.333Z,23.89
2022-08-11T20:22:36.659Z,23.77
2022-08-11T20:25:23.823Z,23.68
2022-08-11T20:28:12.147Z,23.59
2022-08-11T20:30:58.406Z,23.47
2022-08-11T20:33:43.887Z,23.37
2022-08-11T20:36:30.316Z,23.26
2022-08-11T20:39:17.079Z,23.17
2022-08-11T20:42:04.030Z,23.12
2022-08-11T20:44:51.763Z,23.04
2022-08-11T20:47:59.491Z,22.94
2022-08-11T20:50:45.938Z,22.78
2022-08-11T20:53:36.742Z,22.69
2022-08-11T20:56:28.541Z,22.63
2022-08-11T20:59:19.057Z,22.50
2022-08-11T21:02:09.467Z,22.26
2022-08-11T21:04:56.970Z,22.21
2022-08-11T21:07:50.273Z,22.23
2022-08-11T21:10:46.795Z,22.12
2022-08-11T21:13:33.202Z,22.09
2022-08-11T21:16:26.037Z,22.04
2022-08-11T21:19:17.852Z,21.90
2022-08-11T21:22:05.105Z,21.89
2022-08-11T21:24:51.875Z,21.74
2022-08-11T21:27:39.534Z,21.66
2022-08-11T21:30:25.422Z,21.59
2022-08-11T21:33:11.619Z,21.51
2022-08-11T21:35:56.792Z,21.40
2022-08-11T21:38:42.075Z,21.43
2022-08-11T21:41:28.982Z,21.44
2022-08-11T21:44:16.697Z,21.31
2022-08-11T21:47:03.147Z,21.10
2022-08-11T21:49:49.567Z,21.02
2022-08-11T21:52:35.138Z,20.99
2022-08-11T21:55:21.444Z,20.87
2022-08-11T21:58:07.467Z,20.82
2022-08-11T22:00:53.232Z,20.82
2022-08-11T22:03:41.107Z,20.68
2022-08-11T22:06:36.069Z,20.72
2022-08-11T22:09:21.159Z,20.71
2022-08-11T22:12:33.602Z,20.54
2022-08-11T22:15:11.819Z,20.50
2022-08-11T22:17:58.129Z,20.44
2022-08-11T22:20:45.546Z,20.44
2022-08-11T22:23:35.922Z,20.48
2022-08-11T22:26:22.370Z,20.38
2022-08-11T22:29:08.426Z,20.31
2022-08-11T22:31:56.047Z,20.29
2022-08-11T22:34:52.795Z,20.32
2022-08-11T22:37:41.151Z,20.28
2022-08-11T22:40:28.569Z,20.14
2022-08-11T22:43:13.693Z,20.10
2022-08-11T22:45:58.854Z,20.04
2022-08-11T22:48:48.440Z,20.12
2022-08-11T22:51:36.534Z,20.08
2022-08-11T22:54:22.715Z,20.16
2022-08-11T22:57:08.368Z,20.21
2022-08-11T22:59:55.272Z,20.18
2022-08-11T23:02:41.198Z,20.16
2022-08-11T23:05:27.653Z,20.13
2022-08-11T23:08:15.305Z,20.06
2022-08-11T23:11:02.400Z,20.05
2022-08-11T23:13:51.805Z,19.94
2022-08-11T23:16:38.267Z,19.90
2022-08-11T23:20:06.669Z,19.85
2022-08-11T23:22:37.742Z,19.78
2022-08-11T23:25:34.642Z,19.67
2022-08-11T23:28:20.994Z,19.62
2022-08-11T23:31:09.695Z,19.57
2022-08-11T23:33:58.538Z,19.50
2022-08-11T23:36:47.382Z,19.54
2022-08-11T23:39:34.177Z,19.47
2022-08-11T23:42:20.115Z,19.47
2022-08-11T23:45:05.590Z,19.20
2022-08-11T23:47:56.369Z,19.30
2022-08-11T23:50:42.099Z,19.30
2022-08-11T23:53:28.063Z,19.36
2022-08-11T23:56:13.794Z,19.31
2022-08-11T23:58:59.693Z,19.30
